Tropical Cyclones
[Index]
Main Index Home Page Stock Weather Photos Extreme Storms Discussion Storm News and Storm Chasing Reports Tropical Cyclones / Hurricanes / Typhoons Weather Data and Links Wild Fires / Bushfires Weather Observation Techniques Weather Picture Catalogue Tornado Pictures and Reports Stock Video Footage and DVDs for sale
Season 2002-2003 Tropical Cyclone FIONA Track Map
Season 2002-2003 Summaries: [BoM-AU] [JTWC-AU] [JTWC-SIO] [JTWC-SPAC] [JTWC-SH]
<<- Previous TC | JTWC 2002-2003 Season | Next TC ->>

click for intensity scale information  Lat/long Grid: Show Hide

 Date Labels: Show Hide

Joint Typhoon Warning Centre Cyclone Data

Name: FIONA

03 Feb 2003 06:00 UTC to 13 Feb 2003 00:00 UTC

    date/time    lat    long     hPa   cat  kts
2003-02-03 06   11.7   115.3    1002         25          
2003-02-03 12   11.7   114.9    1002         25          
2003-02-03 18   11.7   114.5    1002         25          
2003-02-04 00   11.7   114.1    1004         20          
2003-02-04 06   11.7   113.7    1004         20          
2003-02-04 12   11.7   113.3    1004         20          
2003-02-04 18   11.7   112.9    1004         20          
2003-02-05 00   11.7   112.5    1004         20          
2003-02-05 06   11.7   112.1    1000         30          
2003-02-05 12   11.8   111.5     997         35          
2003-02-05 18   11.9   110.8     997         35          
2003-02-06 00   12.0   110.1     991    1    45          
2003-02-06 06   12.0   109.4     987    1    50          
2003-02-06 12   12.0   108.7     984    2    55          
2003-02-06 18   12.0   108.0     984    2    55          
2003-02-07 00   12.0   107.2     980    2    60          
2003-02-07 06   12.3   106.2     976    2    65          
2003-02-07 12   12.6   105.2     967    3    75          
2003-02-07 18   13.0   104.3     963    3    80          
2003-02-08 00   13.4   103.6     954    3    90          
2003-02-08 06   13.9   102.7     954    3    90          
2003-02-08 12   14.4   101.8     944    4   100          
2003-02-08 18   14.8   100.9     944    4   100          
2003-02-09 00   15.4    99.9     944    4   100          
2003-02-09 06   16.0    98.9     933    4   110          
2003-02-09 12   16.4    97.7     944    4   100          
2003-02-09 18   16.6    96.5     944    4   100          
2003-02-10 00   16.7    95.3     944    4   100          
2003-02-10 06   16.7    94.2     944    4   100          
2003-02-10 12   16.8    93.4     954    3    90          
2003-02-10 18   17.1    92.6     958    3    85          
2003-02-11 00   17.6    91.9     963    3    80          
2003-02-11 06   18.1    91.3     963    3    80          
2003-02-11 12   18.6    91.1     967    3    75          
2003-02-11 18   19.2    91.0     972    2    70          
2003-02-12 00   20.0    91.0     980    2    60          
2003-02-12 06   20.7    91.3     980    2    60          
2003-02-12 12   21.4    91.8     984    2    55          
2003-02-12 18   21.8    92.1     984    1    50          
2003-02-13 00   22.2    92.4    1000         30          
Winds are 1-min average.

Tropical cyclone tracks developed by Michael Bath using data from the Joint Typhoon Warning Centre Best Tracks and Google Maps.


[Australian Severe Weather index] [Copyright Notice] [Email Contacts] [Search This Site] [Privacy Policy]
Document: tropical_cyclone_fiona.htm Updated: 28 June 2017